sensor_id;sensor_type;location;lat;lon;timestamp;temperature;humidity
37300;DHT22;23184;51.902;12.836;2023-08-12T00:00:59;18.70;99.90
37300;DHT22;23184;51.902;12.836;2023-08-12T00:03:24;18.70;99.90
37300;DHT22;23184;51.902;12.836;2023-08-12T00:05:50;18.70;99.90
37300;DHT22;23184;51.902;12.836;2023-08-12T00:08:17;18.70;99.90
37300;DHT22;23184;51.902;12.836;2023-08-12T00:10:42;18.70;99.90
37300;DHT22;23184;51.902;12.836;2023-08-12T00:13:09;18.70;99.90
37300;DHT22;23184;51.902;12.836;2023-08-12T00:15:34;18.70;99.90
37300;DHT22;23184;51.902;12.836;2023-08-12T00:18:00;18.70;99.90
37300;DHT22;23184;51.902;12.836;2023-08-12T00:20:25;18.70;99.90
37300;DHT22;23184;51.902;12.836;2023-08-12T00:22:51;18.70;99.90
37300;DHT22;23184;51.902;12.836;2023-08-12T00:25:16;18.70;99.90
37300;DHT22;23184;51.902;12.836;2023-08-12T00:27:42;18.70;99.90
37300;DHT22;23184;51.902;12.836;2023-08-12T00:30:08;18.70;99.90
37300;DHT22;23184;51.902;12.836;2023-08-12T00:32:34;18.70;99.90
37300;DHT22;23184;51.902;12.836;2023-08-12T00:35:00;18.60;99.90
37300;DHT22;23184;51.902;12.836;2023-08-12T00:37:25;18.60;99.90
37300;DHT22;23184;51.902;12.836;2023-08-12T00:39:51;18.60;99.90
37300;DHT22;23184;51.902;12.836;2023-08-12T00:42:16;18.60;99.90
37300;DHT22;23184;51.902;12.836;2023-08-12T00:44:42;18.60;99.90
37300;DHT22;23184;51.902;12.836;2023-08-12T00:47:07;18.50;99.90
37300;DHT22;23184;51.902;12.836;2023-08-12T00:49:33;18.50;99.90
37300;DHT22;23184;51.902;12.836;2023-08-12T00:51:58;18.60;99.90
37300;DHT22;23184;51.902;12.836;2023-08-12T00:54:26;18.60;99.90
37300;DHT22;23184;51.902;12.836;2023-08-12T00:56:53;18.60;99.90
37300;DHT22;23184;51.902;12.836;2023-08-12T00:59:20;18.60;99.90
37300;DHT22;23184;51.902;12.836;2023-08-12T01:01:46;18.60;99.90
37300;DHT22;23184;51.902;12.836;2023-08-12T01:04:12;18.60;99.90
37300;DHT22;23184;51.902;12.836;2023-08-12T01:06:38;18.60;99.90
37300;DHT22;23184;51.902;12.836;2023-08-12T01:09:05;18.60;99.90
37300;DHT22;23184;51.902;12.836;2023-08-12T01:11:55;18.60;99.90
37300;DHT22;23184;51.902;12.836;2023-08-12T01:14:27;18.60;99.90
37300;DHT22;23184;51.902;12.836;2023-08-12T01:16:59;18.60;99.90
37300;DHT22;23184;51.902;12.836;2023-08-12T01:19:39;18.60;99.90
37300;DHT22;23184;51.902;12.836;2023-08-12T01:22:09;18.70;99.90
37300;DHT22;23184;51.902;12.836;2023-08-12T01:27:02;18.60;99.90
37300;DHT22;23184;51.902;12.836;2023-08-12T01:29:27;18.60;99.90
37300;DHT22;23184;51.902;12.836;2023-08-12T01:32:14;18.60;99.90
37300;DHT22;23184;51.902;12.836;2023-08-12T01:35:05;18.60;99.90
37300;DHT22;23184;51.902;12.836;2023-08-12T01:37:32;18.50;99.90
37300;DHT22;23184;51.902;12.836;2023-08-12T01:40:01;18.50;99.90
37300;DHT22;23184;51.902;12.836;2023-08-12T01:42:32;18.40;99.90
37300;DHT22;23184;51.902;12.836;2023-08-12T01:44:58;18.50;99.90
37300;DHT22;23184;51.902;12.836;2023-08-12T01:47:24;18.40;99.90
37300;DHT22;23184;51.902;12.836;2023-08-12T01:49:50;18.40;99.90
37300;DHT22;23184;51.902;12.836;2023-08-12T01:52:15;18.40;99.90
37300;DHT22;23184;51.902;12.836;2023-08-12T01:54:41;18.40;99.90
37300;DHT22;23184;51.902;12.836;2023-08-12T01:57:07;18.40;99.90
37300;DHT22;23184;51.902;12.836;2023-08-12T01:59:37;18.40;99.90
37300;DHT22;23184;51.902;12.836;2023-08-12T02:02:03;18.40;99.90
37300;DHT22;23184;51.902;12.836;2023-08-12T02:04:29;18.40;99.90
37300;DHT22;23184;51.902;12.836;2023-08-12T02:06:55;18.40;99.90
37300;DHT22;23184;51.902;12.836;2023-08-12T02:09:21;18.40;99.90
37300;DHT22;23184;51.902;12.836;2023-08-12T02:11:47;18.50;99.90
37300;DHT22;23184;51.902;12.836;2023-08-12T02:14:13;18.40;99.90
37300;DHT22;23184;51.902;12.836;2023-08-12T02:16:38;18.40;99.90
37300;DHT22;23184;51.902;12.836;2023-08-12T02:19:04;18.50;99.90
37300;DHT22;23184;51.902;12.836;2023-08-12T02:21:30;18.40;99.90
37300;DHT22;23184;51.902;12.836;2023-08-12T02:23:55;18.40;99.90
37300;DHT22;23184;51.902;12.836;2023-08-12T02:26:21;18.40;99.90
37300;DHT22;23184;51.902;12.836;2023-08-12T02:28:46;18.30;99.90
37300;DHT22;23184;51.902;12.836;2023-08-12T02:31:12;18.30;99.90
37300;DHT22;23184;51.902;12.836;2023-08-12T02:33:37;18.30;99.90
37300;DHT22;23184;51.902;12.836;2023-08-12T02:36:03;18.30;99.90
37300;DHT22;23184;51.902;12.836;2023-08-12T02:38:28;18.20;99.90
37300;DHT22;23184;51.902;12.836;2023-08-12T02:40:54;18.20;99.90
37300;DHT22;23184;51.902;12.836;2023-08-12T02:43:21;18.10;99.90
37300;DHT22;23184;51.902;12.836;2023-08-12T02:45:46;18.10;99.90
37300;DHT22;23184;51.902;12.836;2023-08-12T02:48:12;18.00;99.90
37300;DHT22;23184;51.902;12.836;2023-08-12T02:50:38;18.00;99.90
37300;DHT22;23184;51.902;12.836;2023-08-12T02:53:05;17.90;99.90
37300;DHT22;23184;51.902;12.836;2023-08-12T02:55:31;17.90;99.90
37300;DHT22;23184;51.902;12.836;2023-08-12T02:58:00;17.80;99.90
37300;DHT22;23184;51.902;12.836;2023-08-12T03:00:26;17.80;99.90
37300;DHT22;23184;51.902;12.836;2023-08-12T03:02:52;17.80;99.90
37300;DHT22;23184;51.902;12.836;2023-08-12T03:05:18;17.80;99.90
37300;DHT22;23184;51.902;12.836;2023-08-12T03:07:43;17.80;99.90
37300;DHT22;23184;51.902;12.836;2023-08-12T03:10:09;17.80;99.90
37300;DHT22;23184;51.902;12.836;2023-08-12T03:12:35;17.80;99.90
37300;DHT22;23184;51.902;12.836;2023-08-12T03:15:01;17.70;99.90
37300;DHT22;23184;51.902;12.836;2023-08-12T03:17:27;17.70;99.90
37300;DHT22;23184;51.902;12.836;2023-08-12T03:19:52;17.70;99.90
37300;DHT22;23184;51.902;12.836;2023-08-12T03:22:20;17.70;99.90
37300;DHT22;23184;51.902;12.836;2023-08-12T03:24:45;17.60;99.90
37300;DHT22;23184;51.902;12.836;2023-08-12T03:27:11;17.60;99.90
37300;DHT22;23184;51.902;12.836;2023-08-12T03:29:36;17.60;99.90
37300;DHT22;23184;51.902;12.836;2023-08-12T03:32:02;17.50;99.90
37300;DHT22;23184;51.902;12.836;2023-08-12T03:34:28;17.50;99.90
37300;DHT22;23184;51.902;12.836;2023-08-12T03:36:55;17.40;99.90
37300;DHT22;23184;51.902;12.836;2023-08-12T03:39:20;17.40;99.90
37300;DHT22;23184;51.902;12.836;2023-08-12T03:41:46;17.30;99.90
37300;DHT22;23184;51.902;12.836;2023-08-12T03:44:11;17.30;99.90
37300;DHT22;23184;51.902;12.836;2023-08-12T03:46:37;17.30;99.90
37300;DHT22;23184;51.902;12.836;2023-08-12T03:49:02;17.30;99.90
37300;DHT22;23184;51.902;12.836;2023-08-12T03:51:28;17.30;99.90
37300;DHT22;23184;51.902;12.836;2023-08-12T03:53:53;17.30;99.90
37300;DHT22;23184;51.902;12.836;2023-08-12T03:56:19;17.30;99.90
37300;DHT22;23184;51.902;12.836;2023-08-12T03:58:45;17.30;99.90
37300;DHT22;23184;51.902;12.836;2023-08-12T04:01:10;17.30;99.90
37300;DHT22;23184;51.902;12.836;2023-08-12T04:03:36;17.30;99.90
37300;DHT22;23184;51.902;12.836;2023-08-12T04:06:01;17.30;99.90
37300;DHT22;23184;51.902;12.836;2023-08-12T04:08:28;17.30;99.90
37300;DHT22;23184;51.902;12.836;2023-08-12T04:10:54;17.40;99.90
37300;DHT22;23184;51.902;12.836;2023-08-12T04:13:20;17.40;99.90
37300;DHT22;23184;51.902;12.836;2023-08-12T04:15:49;17.40;99.90
37300;DHT22;23184;51.902;12.836;2023-08-12T04:18:15;17.40;99.90
37300;DHT22;23184;51.902;12.836;2023-08-12T04:20:40;17.50;99.90
37300;DHT22;23184;51.902;12.836;2023-08-12T04:23:06;17.50;99.90
37300;DHT22;23184;51.902;12.836;2023-08-12T04:25:32;17.50;99.90
37300;DHT22;23184;51.902;12.836;2023-08-12T04:27:57;17.60;99.90
37300;DHT22;23184;51.902;12.836;2023-08-12T04:30:23;17.60;99.90
37300;DHT22;23184;51.902;12.836;2023-08-12T04:32:49;17.60;99.90
37300;DHT22;23184;51.902;12.836;2023-08-12T04:35:15;17.60;99.90
37300;DHT22;23184;51.902;12.836;2023-08-12T04:37:40;17.70;99.90
37300;DHT22;23184;51.902;12.836;2023-08-12T04:40:06;17.70;99.90
37300;DHT22;23184;51.902;12.836;2023-08-12T04:42:36;17.80;99.90
37300;DHT22;23184;51.902;12.836;2023-08-12T04:45:02;17.90;99.90
37300;DHT22;23184;51.902;12.836;2023-08-12T04:47:28;18.00;99.90
37300;DHT22;23184;51.902;12.836;2023-08-12T04:49:54;18.00;99.90
37300;DHT22;23184;51.902;12.836;2023-08-12T04:52:20;18.10;99.90
37300;DHT22;23184;51.902;12.836;2023-08-12T04:54:46;18.20;99.90
37300;DHT22;23184;51.902;12.836;2023-08-12T04:57:11;18.20;99.90
37300;DHT22;23184;51.902;12.836;2023-08-12T04:59:37;18.40;99.90
37300;DHT22;23184;51.902;12.836;2023-08-12T05:02:03;18.40;99.90
37300;DHT22;23184;51.902;12.836;2023-08-12T05:04:28;18.50;99.90
37300;DHT22;23184;51.902;12.836;2023-08-12T05:06:54;18.60;99.90
37300;DHT22;23184;51.902;12.836;2023-08-12T05:09:19;18.80;99.90
37300;DHT22;23184;51.902;12.836;2023-08-12T05:11:45;18.80;99.90
37300;DHT22;23184;51.902;12.836;2023-08-12T05:14:10;19.00;99.90
37300;DHT22;23184;51.902;12.836;2023-08-12T05:16:36;19.10;99.90
37300;DHT22;23184;51.902;12.836;2023-08-12T05:19:01;19.20;99.90
37300;DHT22;23184;51.902;12.836;2023-08-12T05:21:27;19.30;99.90
37300;DHT22;23184;51.902;12.836;2023-08-12T05:23:52;19.30;99.90
37300;DHT22;23184;51.902;12.836;2023-08-12T05:26:18;19.40;99.90
37300;DHT22;23184;51.902;12.836;2023-08-12T05:28:45;19.40;99.90
37300;DHT22;23184;51.902;12.836;2023-08-12T05:31:10;19.40;99.90
37300;DHT22;23184;51.902;12.836;2023-08-12T05:33:36;19.40;99.90
37300;DHT22;23184;51.902;12.836;2023-08-12T05:36:02;19.40;99.90
37300;DHT22;23184;51.902;12.836;2023-08-12T05:38:28;19.30;99.90
37300;DHT22;23184;51.902;12.836;2023-08-12T05:40:53;19.40;99.90
37300;DHT22;23184;51.902;12.836;2023-08-12T05:43:19;19.50;99.90
37300;DHT22;23184;51.902;12.836;2023-08-12T05:45:44;19.50;99.90
37300;DHT22;23184;51.902;12.836;2023-08-12T05:48:10;19.50;99.90
37300;DHT22;23184;51.902;12.836;2023-08-12T05:50:35;19.50;99.90
37300;DHT22;23184;51.902;12.836;2023-08-12T05:53:01;19.50;99.90
37300;DHT22;23184;51.902;12.836;2023-08-12T05:55:26;19.60;99.90
37300;DHT22;23184;51.902;12.836;2023-08-12T05:57:52;19.70;99.90
37300;DHT22;23184;51.902;12.836;2023-08-12T06:00:17;19.80;99.90
37300;DHT22;23184;51.902;12.836;2023-08-12T06:02:43;19.90;99.90
37300;DHT22;23184;51.902;12.836;2023-08-12T06:05:08;20.10;99.90
37300;DHT22;23184;51.902;12.836;2023-08-12T06:07:34;20.10;99.90
37300;DHT22;23184;51.902;12.836;2023-08-12T06:10:00;20.30;99.90
37300;DHT22;23184;51.902;12.836;2023-08-12T06:12:26;20.50;99.90
37300;DHT22;23184;51.902;12.836;2023-08-12T06:14:52;20.60;99.90
37300;DHT22;23184;51.902;12.836;2023-08-12T06:17:17;20.70;99.90
37300;DHT22;23184;51.902;12.836;2023-08-12T06:19:43;20.70;99.90
37300;DHT22;23184;51.902;12.836;2023-08-12T06:22:08;20.90;99.90
37300;DHT22;23184;51.902;12.836;2023-08-12T06:24:34;21.00;99.90
37300;DHT22;23184;51.902;12.836;2023-08-12T06:26:59;21.00;99.90
37300;DHT22;23184;51.902;12.836;2023-08-12T06:29:25;21.00;99.90
37300;DHT22;23184;51.902;12.836;2023-08-12T06:31:52;20.90;99.90
37300;DHT22;23184;51.902;12.836;2023-08-12T06:34:17;20.90;99.90
37300;DHT22;23184;51.902;12.836;2023-08-12T06:36:43;21.00;99.90
37300;DHT22;23184;51.902;12.836;2023-08-12T06:39:09;21.10;99.90
37300;DHT22;23184;51.902;12.836;2023-08-12T06:41:34;21.40;99.90
37300;DHT22;23184;51.902;12.836;2023-08-12T06:44:00;21.60;99.90
37300;DHT22;23184;51.902;12.836;2023-08-12T06:46:26;21.80;99.90
37300;DHT22;23184;51.902;12.836;2023-08-12T06:48:51;22.10;99.90
37300;DHT22;23184;51.902;12.836;2023-08-12T06:51:17;22.40;99.90
37300;DHT22;23184;51.902;12.836;2023-08-12T06:53:42;22.80;99.90
37300;DHT22;23184;51.902;12.836;2023-08-12T06:56:08;23.10;99.90
37300;DHT22;23184;51.902;12.836;2023-08-12T06:58:34;23.00;99.90
37300;DHT22;23184;51.902;12.836;2023-08-12T07:00:59;22.90;99.90
37300;DHT22;23184;51.902;12.836;2023-08-12T07:03:25;22.80;99.90
37300;DHT22;23184;51.902;12.836;2023-08-12T07:05:52;22.70;99.90
37300;DHT22;23184;51.902;12.836;2023-08-12T07:08:18;22.50;99.90
37300;DHT22;23184;51.902;12.836;2023-08-12T07:10:43;22.30;99.90
37300;DHT22;23184;51.902;12.836;2023-08-12T07:13:09;22.30;99.90
37300;DHT22;23184;51.902;12.836;2023-08-12T07:15:35;22.20;99.90
37300;DHT22;23184;51.902;12.836;2023-08-12T07:18:01;22.20;99.90
37300;DHT22;23184;51.902;12.836;2023-08-12T07:20:27;22.20;99.90
37300;DHT22;23184;51.902;12.836;2023-08-12T07:22:52;22.20;99.90
37300;DHT22;23184;51.902;12.836;2023-08-12T07:25:18;22.40;99.90
37300;DHT22;23184;51.902;12.836;2023-08-12T07:27:44;22.50;99.90
37300;DHT22;23184;51.902;12.836;2023-08-12T07:30:09;22.40;99.90
37300;DHT22;23184;51.902;12.836;2023-08-12T07:32:38;22.50;99.90
37300;DHT22;23184;51.902;12.836;2023-08-12T07:35:05;22.60;99.90
37300;DHT22;23184;51.902;12.836;2023-08-12T07:37:33;22.80;99.90
37300;DHT22;23184;51.902;12.836;2023-08-12T07:39:58;22.90;99.90
37300;DHT22;23184;51.902;12.836;2023-08-12T07:42:24;22.90;99.90
37300;DHT22;23184;51.902;12.836;2023-08-12T07:44:50;23.10;99.90
37300;DHT22;23184;51.902;12.836;2023-08-12T07:47:15;23.10;99.90
37300;DHT22;23184;51.902;12.836;2023-08-12T07:49:42;23.10;99.90
37300;DHT22;23184;51.902;12.836;2023-08-12T07:52:07;23.30;99.90
37300;DHT22;23184;51.902;12.836;2023-08-12T07:54:33;23.30;99.90
37300;DHT22;23184;51.902;12.836;2023-08-12T07:56:58;23.20;99.90
37300;DHT22;23184;51.902;12.836;2023-08-12T07:59:24;23.40;99.90
37300;DHT22;23184;51.902;12.836;2023-08-12T08:01:51;23.40;99.90
37300;DHT22;23184;51.902;12.836;2023-08-12T08:04:16;23.40;99.90
37300;DHT22;23184;51.902;12.836;2023-08-12T08:06:42;23.60;99.90
37300;DHT22;23184;51.902;12.836;2023-08-12T08:09:07;23.60;99.90
37300;DHT22;23184;51.902;12.836;2023-08-12T08:11:33;23.70;99.90
37300;DHT22;23184;51.902;12.836;2023-08-12T08:13:59;23.90;99.90
37300;DHT22;23184;51.902;12.836;2023-08-12T08:16:25;23.90;99.90
37300;DHT22;23184;51.902;12.836;2023-08-12T08:18:50;23.80;99.90
37300;DHT22;23184;51.902;12.836;2023-08-12T08:21:16;24.00;99.90
37300;DHT22;23184;51.902;12.836;2023-08-12T08:23:42;24.10;99.90
37300;DHT22;23184;51.902;12.836;2023-08-12T08:26:08;24.20;99.90
37300;DHT22;23184;51.902;12.836;2023-08-12T08:28:34;24.40;99.90
37300;DHT22;23184;51.902;12.836;2023-08-12T08:31:00;24.50;99.90
37300;DHT22;23184;51.902;12.836;2023-08-12T08:33:26;24.70;99.90
37300;DHT22;23184;51.902;12.836;2023-08-12T08:35:52;24.80;99.90
37300;DHT22;23184;51.902;12.836;2023-08-12T08:38:17;24.80;99.90
37300;DHT22;23184;51.902;12.836;2023-08-12T08:40:43;25.10;99.90
37300;DHT22;23184;51.902;12.836;2023-08-12T08:43:09;25.20;99.90
37300;DHT22;23184;51.902;12.836;2023-08-12T08:45:36;25.00;99.90
37300;DHT22;23184;51.902;12.836;2023-08-12T08:48:03;25.20;99.90
37300;DHT22;23184;51.902;12.836;2023-08-12T08:50:31;25.40;99.90
37300;DHT22;23184;51.902;12.836;2023-08-12T08:52:57;25.50;99.90
37300;DHT22;23184;51.902;12.836;2023-08-12T08:55:24;25.60;99.90
37300;DHT22;23184;51.902;12.836;2023-08-12T08:57:50;25.60;99.90
37300;DHT22;23184;51.902;12.836;2023-08-12T09:00:16;25.60;99.90
37300;DHT22;23184;51.902;12.836;2023-08-12T09:02:44;25.40;99.90
37300;DHT22;23184;51.902;12.836;2023-08-12T09:05:11;25.00;99.90
37300;DHT22;23184;51.902;12.836;2023-08-12T09:07:38;24.50;99.90
37300;DHT22;23184;51.902;12.836;2023-08-12T09:10:04;24.30;99.90
37300;DHT22;23184;51.902;12.836;2023-08-12T09:12:30;24.10;99.90
37300;DHT22;23184;51.902;12.836;2023-08-12T09:14:57;24.00;99.90
37300;DHT22;23184;51.902;12.836;2023-08-12T09:17:23;23.80;99.90
37300;DHT22;23184;51.902;12.836;2023-08-12T09:19:49;23.70;99.90
37300;DHT22;23184;51.902;12.836;2023-08-12T09:22:15;23.50;99.90
37300;DHT22;23184;51.902;12.836;2023-08-12T09:24:42;23.30;99.90
37300;DHT22;23184;51.902;12.836;2023-08-12T09:27:08;23.10;99.90
37300;DHT22;23184;51.902;12.836;2023-08-12T09:29:34;23.00;99.90
37300;DHT22;23184;51.902;12.836;2023-08-12T09:32:17;23.00;99.90
37300;DHT22;23184;51.902;12.836;2023-08-12T09:37:14;22.90;99.90
37300;DHT22;23184;51.902;12.836;2023-08-12T09:39:40;23.00;99.90
37300;DHT22;23184;51.902;12.836;2023-08-12T09:42:05;23.00;99.90
37300;DHT22;23184;51.902;12.836;2023-08-12T09:44:35;23.00;99.90
37300;DHT22;23184;51.902;12.836;2023-08-12T09:47:00;23.00;99.90
37300;DHT22;23184;51.902;12.836;2023-08-12T09:49:26;23.00;99.90
37300;DHT22;23184;51.902;12.836;2023-08-12T09:51:53;23.10;99.90
37300;DHT22;23184;51.902;12.836;2023-08-12T09:54:19;23.10;99.90
37300;DHT22;23184;51.902;12.836;2023-08-12T09:56:47;23.20;99.90
37300;DHT22;23184;51.902;12.836;2023-08-12T09:59:16;23.30;99.90
37300;DHT22;23184;51.902;12.836;2023-08-12T10:01:43;23.20;99.90
37300;DHT22;23184;51.902;12.836;2023-08-12T10:04:11;23.10;99.90
37300;DHT22;23184;51.902;12.836;2023-08-12T10:06:40;23.00;99.90
37300;DHT22;23184;51.902;12.836;2023-08-12T10:09:06;23.00;99.90
37300;DHT22;23184;51.902;12.836;2023-08-12T10:11:34;23.00;99.90
37300;DHT22;23184;51.902;12.836;2023-08-12T10:14:00;23.00;99.90
37300;DHT22;23184;51.902;12.836;2023-08-12T10:16:29;23.00;99.90
37300;DHT22;23184;51.902;12.836;2023-08-12T10:18:55;23.10;99.90
37300;DHT22;23184;51.902;12.836;2023-08-12T10:21:22;23.10;99.90
37300;DHT22;23184;51.902;12.836;2023-08-12T10:23:50;23.20;99.90
37300;DHT22;23184;51.902;12.836;2023-08-12T10:26:17;23.30;99.90
37300;DHT22;23184;51.902;12.836;2023-08-12T10:28:43;23.40;99.90
37300;DHT22;23184;51.902;12.836;2023-08-12T10:31:11;23.60;99.90
37300;DHT22;23184;51.902;12.836;2023-08-12T10:33:40;23.60;99.90
37300;DHT22;23184;51.902;12.836;2023-08-12T10:36:06;23.60;99.90
37300;DHT22;23184;51.902;12.836;2023-08-12T10:38:33;23.70;99.90
37300;DHT22;23184;51.902;12.836;2023-08-12T10:41:18;23.80;99.90
37300;DHT22;23184;51.902;12.836;2023-08-12T10:44:00;23.90;99.90
37300;DHT22;23184;51.902;12.836;2023-08-12T10:46:32;24.30;99.90
37300;DHT22;23184;51.902;12.836;2023-08-12T10:48:59;24.20;99.90
37300;DHT22;23184;51.902;12.836;2023-08-12T10:51:46;24.20;99.90
37300;DHT22;23184;51.902;12.836;2023-08-12T10:54:16;24.10;99.90
37300;DHT22;23184;51.902;12.836;2023-08-12T10:57:10;24.10;99.90
37300;DHT22;23184;51.902;12.836;2023-08-12T11:02:27;24.10;99.90
37300;DHT22;23184;51.902;12.836;2023-08-12T11:05:13;24.10;99.90
37300;DHT22;23184;51.902;12.836;2023-08-12T11:10:10;23.90;99.90
37300;DHT22;23184;51.902;12.836;2023-08-12T11:12:36;24.10;99.90
37300;DHT22;23184;51.902;12.836;2023-08-12T11:15:03;24.00;99.90
37300;DHT22;23184;51.902;12.836;2023-08-12T11:17:33;23.90;99.90
37300;DHT22;23184;51.902;12.836;2023-08-12T11:20:01;23.90;99.90
37300;DHT22;23184;51.902;12.836;2023-08-12T11:22:27;23.80;99.90
37300;DHT22;23184;51.902;12.836;2023-08-12T11:24:53;23.70;99.90
37300;DHT22;23184;51.902;12.836;2023-08-12T11:27:18;23.80;99.90
37300;DHT22;23184;51.902;12.836;2023-08-12T11:29:44;23.80;99.90
37300;DHT22;23184;51.902;12.836;2023-08-12T11:32:09;23.60;99.90
37300;DHT22;23184;51.902;12.836;2023-08-12T11:34:35;23.50;99.90
37300;DHT22;23184;51.902;12.836;2023-08-12T11:37:03;23.50;99.90
37300;DHT22;23184;51.902;12.836;2023-08-12T11:39:29;23.50;99.90
37300;DHT22;23184;51.902;12.836;2023-08-12T11:41:55;23.60;99.90
37300;DHT22;23184;51.902;12.836;2023-08-12T11:44:23;23.60;99.90
37300;DHT22;23184;51.902;12.836;2023-08-12T11:46:50;23.60;99.90
37300;DHT22;23184;51.902;12.836;2023-08-12T11:49:15;23.60;99.90
37300;DHT22;23184;51.902;12.836;2023-08-12T11:51:42;23.60;99.90
37300;DHT22;23184;51.902;12.836;2023-08-12T11:54:09;23.60;99.90
37300;DHT22;23184;51.902;12.836;2023-08-12T11:56:35;23.70;99.90
37300;DHT22;23184;51.902;12.836;2023-08-12T11:59:00;23.80;99.90
37300;DHT22;23184;51.902;12.836;2023-08-12T12:01:26;24.10;99.90
37300;DHT22;23184;51.902;12.836;2023-08-12T12:03:54;24.40;99.90
37300;DHT22;23184;51.902;12.836;2023-08-12T12:06:35;24.70;99.90
37300;DHT22;23184;51.902;12.836;2023-08-12T12:09:05;25.10;99.90
37300;DHT22;23184;51.902;12.836;2023-08-12T12:11:33;25.50;99.90
37300;DHT22;23184;51.902;12.836;2023-08-12T12:14:03;25.90;99.90
37300;DHT22;23184;51.902;12.836;2023-08-12T12:16:46;26.50;99.90
37300;DHT22;23184;51.902;12.836;2023-08-12T12:19:22;27.40;99.90
37300;DHT22;23184;51.902;12.836;2023-08-12T12:24:15;29.50;99.90
37300;DHT22;23184;51.902;12.836;2023-08-12T12:26:41;30.20;99.90
37300;DHT22;23184;51.902;12.836;2023-08-12T12:29:07;31.20;99.90
37300;DHT22;23184;51.902;12.836;2023-08-12T12:31:35;31.90;99.90
37300;DHT22;23184;51.902;12.836;2023-08-12T12:34:04;31.80;99.90
37300;DHT22;23184;51.902;12.836;2023-08-12T12:36:31;31.90;98.40
37300;DHT22;23184;51.902;12.836;2023-08-12T12:38:56;31.20;99.90
37300;DHT22;23184;51.902;12.836;2023-08-12T12:41:22;30.30;99.90
37300;DHT22;23184;51.902;12.836;2023-08-12T12:43:48;29.80;99.90
37300;DHT22;23184;51.902;12.836;2023-08-12T12:46:14;30.90;99.90
37300;DHT22;23184;51.902;12.836;2023-08-12T12:48:40;31.30;99.90
37300;DHT22;23184;51.902;12.836;2023-08-12T12:51:06;30.90;99.90
37300;DHT22;23184;51.902;12.836;2023-08-12T12:53:31;30.90;99.90
37300;DHT22;23184;51.902;12.836;2023-08-12T12:55:57;31.80;99.90
37300;DHT22;23184;51.902;12.836;2023-08-12T12:58:25;31.80;99.90
37300;DHT22;23184;51.902;12.836;2023-08-12T13:00:51;31.90;97.90
37300;DHT22;23184;51.902;12.836;2023-08-12T13:03:16;32.00;98.80
37300;DHT22;23184;51.902;12.836;2023-08-12T13:05:42;31.90;97.50
37300;DHT22;23184;51.902;12.836;2023-08-12T13:08:07;31.10;98.60
37300;DHT22;23184;51.902;12.836;2023-08-12T13:10:33;31.30;97.90
37300;DHT22;23184;51.902;12.836;2023-08-12T13:12:59;31.80;96.50
37300;DHT22;23184;51.902;12.836;2023-08-12T13:15:24;32.30;96.40
37300;DHT22;23184;51.902;12.836;2023-08-12T13:17:51;32.10;95.30
37300;DHT22;23184;51.902;12.836;2023-08-12T13:20:17;32.70;93.30
37300;DHT22;23184;51.902;12.836;2023-08-12T13:22:43;32.70;92.20
37300;DHT22;23184;51.902;12.836;2023-08-12T13:25:08;32.30;91.40
37300;DHT22;23184;51.902;12.836;2023-08-12T13:27:34;32.50;91.60
37300;DHT22;23184;51.902;12.836;2023-08-12T13:29:59;32.90;88.90
37300;DHT22;23184;51.902;12.836;2023-08-12T13:32:25;33.10;86.70
37300;DHT22;23184;51.902;12.836;2023-08-12T13:34:50;32.40;90.40
37300;DHT22;23184;51.902;12.836;2023-08-12T13:37:16;32.00;90.30
37300;DHT22;23184;51.902;12.836;2023-08-12T13:39:41;31.70;91.50
37300;DHT22;23184;51.902;12.836;2023-08-12T13:42:07;32.50;89.40
37300;DHT22;23184;51.902;12.836;2023-08-12T13:44:32;32.70;90.00
37300;DHT22;23184;51.902;12.836;2023-08-12T13:46:58;31.50;90.10
37300;DHT22;23184;51.902;12.836;2023-08-12T13:49:24;31.40;91.60
37300;DHT22;23184;51.902;12.836;2023-08-12T13:51:50;30.90;92.30
37300;DHT22;23184;51.902;12.836;2023-08-12T13:54:15;29.70;95.80
37300;DHT22;23184;51.902;12.836;2023-08-12T13:56:41;29.70;98.40
37300;DHT22;23184;51.902;12.836;2023-08-12T13:59:06;29.30;97.10
37300;DHT22;23184;51.902;12.836;2023-08-12T14:01:32;29.10;99.90
37300;DHT22;23184;51.902;12.836;2023-08-12T14:03:57;29.10;99.90
37300;DHT22;23184;51.902;12.836;2023-08-12T14:06:23;29.10;99.90
37300;DHT22;23184;51.902;12.836;2023-08-12T14:08:48;29.30;99.90
37300;DHT22;23184;51.902;12.836;2023-08-12T14:11:14;29.70;99.90
37300;DHT22;23184;51.902;12.836;2023-08-12T14:13:39;30.10;99.90
37300;DHT22;23184;51.902;12.836;2023-08-12T14:16:05;30.30;99.90
37300;DHT22;23184;51.902;12.836;2023-08-12T14:18:31;29.70;99.90
37300;DHT22;23184;51.902;12.836;2023-08-12T14:20:57;29.20;99.90
37300;DHT22;23184;51.902;12.836;2023-08-12T14:23:22;29.00;99.90
37300;DHT22;23184;51.902;12.836;2023-08-12T14:25:48;28.80;99.90
37300;DHT22;23184;51.902;12.836;2023-08-12T14:28:13;28.80;99.90
37300;DHT22;23184;51.902;12.836;2023-08-12T14:30:39;29.10;99.90
37300;DHT22;23184;51.902;12.836;2023-08-12T14:33:04;29.10;99.90
37300;DHT22;23184;51.902;12.836;2023-08-12T14:35:33;29.40;99.90
37300;DHT22;23184;51.902;12.836;2023-08-12T14:37:58;29.40;99.90
37300;DHT22;23184;51.902;12.836;2023-08-12T14:40:24;29.30;99.90
37300;DHT22;23184;51.902;12.836;2023-08-12T14:42:49;29.10;99.90
37300;DHT22;23184;51.902;12.836;2023-08-12T14:45:15;29.40;99.90
37300;DHT22;23184;51.902;12.836;2023-08-12T14:47:41;29.60;99.90
37300;DHT22;23184;51.902;12.836;2023-08-12T14:50:06;29.80;99.90
37300;DHT22;23184;51.902;12.836;2023-08-12T14:52:33;30.30;97.40
37300;DHT22;23184;51.902;12.836;2023-08-12T14:54:59;30.10;98.70
37300;DHT22;23184;51.902;12.836;2023-08-12T14:57:24;30.10;98.30
37300;DHT22;23184;51.902;12.836;2023-08-12T14:59:50;29.70;97.80
37300;DHT22;23184;51.902;12.836;2023-08-12T15:02:17;29.20;99.90
37300;DHT22;23184;51.902;12.836;2023-08-12T15:04:43;29.00;99.90
37300;DHT22;23184;51.902;12.836;2023-08-12T15:07:08;28.80;99.90
37300;DHT22;23184;51.902;12.836;2023-08-12T15:09:34;28.60;99.90
37300;DHT22;23184;51.902;12.836;2023-08-12T15:11:59;28.60;99.90
37300;DHT22;23184;51.902;12.836;2023-08-12T15:14:25;28.60;99.90
37300;DHT22;23184;51.902;12.836;2023-08-12T15:16:51;28.50;99.90
37300;DHT22;23184;51.902;12.836;2023-08-12T15:19:16;28.40;99.90
37300;DHT22;23184;51.902;12.836;2023-08-12T15:21:42;28.30;99.90
37300;DHT22;23184;51.902;12.836;2023-08-12T15:24:07;28.30;99.90